sensor_id;sensor_type;location;lat;lon;timestamp;P1;durP1;ratioP1;P2;durP2;ratioP2
215;SDS011;64590;48.81286795;9.14184224;2023-01-28T00:00:30;15.82;;;8.38;;
215;SDS011;64590;48.81286795;9.14184224;2023-01-28T00:02:56;17.08;;;8.95;;
215;SDS011;64590;48.81286795;9.14184224;2023-01-28T00:05:23;15.27;;;8.90;;
215;SDS011;64590;48.81286795;9.14184224;2023-01-28T00:07:49;17.77;;;8.95;;
215;SDS011;64590;48.81286795;9.14184224;2023-01-28T00:10:18;18.75;;;10.52;;
215;SDS011;64590;48.81286795;9.14184224;2023-01-28T00:12:45;18.92;;;9.00;;
215;SDS011;64590;48.81286795;9.14184224;2023-01-28T00:15:11;14.85;;;7.90;;
215;SDS011;64590;48.81286795;9.14184224;2023-01-28T00:17:38;13.52;;;8.18;;
215;SDS011;64590;48.81286795;9.14184224;2023-01-28T00:20:05;16.50;;;8.70;;
215;SDS011;64590;48.81286795;9.14184224;2023-01-28T00:22:32;14.80;;;8.23;;
215;SDS011;64590;48.81286795;9.14184224;2023-01-28T00:24:59;13.73;;;7.90;;
215;SDS011;64590;48.81286795;9.14184224;2023-01-28T00:27:27;14.45;;;8.40;;
215;SDS011;64590;48.81286795;9.14184224;2023-01-28T00:29:56;18.13;;;9.15;;
215;SDS011;64590;48.81286795;9.14184224;2023-01-28T00:32:23;14.90;;;8.05;;
215;SDS011;64590;48.81286795;9.14184224;2023-01-28T00:34:51;15.48;;;8.20;;
215;SDS011;64590;48.81286795;9.14184224;2023-01-28T00:37:18;14.85;;;8.38;;
215;SDS011;64590;48.81286795;9.14184224;2023-01-28T00:39:44;15.80;;;7.97;;
215;SDS011;64590;48.81286795;9.14184224;2023-01-28T00:42:11;15.35;;;8.43;;
215;SDS011;64590;48.81286795;9.14184224;2023-01-28T00:44:39;14.35;;;7.88;;
215;SDS011;64590;48.81286795;9.14184224;2023-01-28T00:47:05;13.98;;;7.70;;
215;SDS011;64590;48.81286795;9.14184224;2023-01-28T00:49:32;13.13;;;7.35;;
215;SDS011;64590;48.81286795;9.14184224;2023-01-28T00:51:58;13.35;;;7.40;;
215;SDS011;64590;48.81286795;9.14184224;2023-01-28T00:54:25;13.63;;;7.60;;
215;SDS011;64590;48.81286795;9.14184224;2023-01-28T00:56:51;13.23;;;7.18;;
215;SDS011;64590;48.81286795;9.14184224;2023-01-28T00:59:18;16.15;;;8.77;;
215;SDS011;64590;48.81286795;9.14184224;2023-01-28T01:01:47;15.07;;;8.10;;
215;SDS011;64590;48.81286795;9.14184224;2023-01-28T01:04:13;15.15;;;8.13;;
215;SDS011;64590;48.81286795;9.14184224;2023-01-28T01:06:51;13.63;;;7.28;;
215;SDS011;64590;48.81286795;9.14184224;2023-01-28T01:09:18;13.45;;;7.35;;
215;SDS011;64590;48.81286795;9.14184224;2023-01-28T01:11:46;14.52;;;7.53;;
215;SDS011;64590;48.81286795;9.14184224;2023-01-28T01:14:13;13.75;;;7.25;;
215;SDS011;64590;48.81286795;9.14184224;2023-01-28T01:16:39;12.63;;;6.88;;
215;SDS011;64590;48.81286795;9.14184224;2023-01-28T01:19:07;13.48;;;7.15;;
215;SDS011;64590;48.81286795;9.14184224;2023-01-28T01:21:34;12.00;;;6.65;;
215;SDS011;64590;48.81286795;9.14184224;2023-01-28T01:24:01;14.30;;;7.60;;
215;SDS011;64590;48.81286795;9.14184224;2023-01-28T01:26:28;12.68;;;7.28;;
215;SDS011;64590;48.81286795;9.14184224;2023-01-28T01:28:56;14.45;;;7.78;;
215;SDS011;64590;48.81286795;9.14184224;2023-01-28T01:31:22;13.25;;;7.30;;
215;SDS011;64590;48.81286795;9.14184224;2023-01-28T01:33:50;11.93;;;6.70;;
215;SDS011;64590;48.81286795;9.14184224;2023-01-28T01:36:19;12.90;;;7.40;;
215;SDS011;64590;48.81286795;9.14184224;2023-01-28T01:38:46;14.15;;;7.70;;
215;SDS011;64590;48.81286795;9.14184224;2023-01-28T01:41:16;12.48;;;7.00;;
215;SDS011;64590;48.81286795;9.14184224;2023-01-28T01:43:49;11.48;;;6.60;;
215;SDS011;64590;48.81286795;9.14184224;2023-01-28T01:46:18;13.27;;;6.88;;
215;SDS011;64590;48.81286795;9.14184224;2023-01-28T01:48:48;13.02;;;6.82;;
215;SDS011;64590;48.81286795;9.14184224;2023-01-28T01:51:16;12.27;;;7.10;;
215;SDS011;64590;48.81286795;9.14184224;2023-01-28T01:53:48;11.40;;;6.68;;
215;SDS011;64590;48.81286795;9.14184224;2023-01-28T01:56:20;11.50;;;6.63;;
215;SDS011;64590;48.81286795;9.14184224;2023-01-28T01:58:51;12.75;;;6.95;;
215;SDS011;64590;48.81286795;9.14184224;2023-01-28T02:01:20;10.43;;;6.15;;
215;SDS011;64590;48.81286795;9.14184224;2023-01-28T02:03:52;12.63;;;7.00;;
215;SDS011;64590;48.81286795;9.14184224;2023-01-28T02:06:25;13.23;;;7.10;;
215;SDS011;64590;48.81286795;9.14184224;2023-01-28T02:08:53;11.27;;;6.75;;
215;SDS011;64590;48.81286795;9.14184224;2023-01-28T02:11:20;13.02;;;6.88;;
215;SDS011;64590;48.81286795;9.14184224;2023-01-28T02:13:51;12.90;;;7.10;;
215;SDS011;64590;48.81286795;9.14184224;2023-01-28T02:16:21;11.88;;;7.03;;
215;SDS011;64590;48.81286795;9.14184224;2023-01-28T02:18:48;11.35;;;6.60;;
215;SDS011;64590;48.81286795;9.14184224;2023-01-28T02:21:27;12.38;;;6.70;;
215;SDS011;64590;48.81286795;9.14184224;2023-01-28T02:24:12;12.80;;;6.25;;
215;SDS011;64590;48.81286795;9.14184224;2023-01-28T02:26:54;13.70;;;6.82;;
215;SDS011;64590;48.81286795;9.14184224;2023-01-28T02:29:36;11.18;;;6.38;;
215;SDS011;64590;48.81286795;9.14184224;2023-01-28T02:32:09;10.50;;;6.38;;
215;SDS011;64590;48.81286795;9.14184224;2023-01-28T02:34:44;12.00;;;6.40;;
215;SDS011;64590;48.81286795;9.14184224;2023-01-28T02:37:16;12.80;;;7.00;;
215;SDS011;64590;48.81286795;9.14184224;2023-01-28T02:39:50;10.80;;;6.10;;
215;SDS011;64590;48.81286795;9.14184224;2023-01-28T02:42:20;12.75;;;6.70;;
215;SDS011;64590;48.81286795;9.14184224;2023-01-28T02:44:52;12.15;;;6.60;;
215;SDS011;64590;48.81286795;9.14184224;2023-01-28T02:47:19;16.02;;;7.15;;
215;SDS011;64590;48.81286795;9.14184224;2023-01-28T02:50:04;12.60;;;6.78;;
215;SDS011;64590;48.81286795;9.14184224;2023-01-28T02:52:36;12.52;;;7.10;;
215;SDS011;64590;48.81286795;9.14184224;2023-01-28T02:55:37;13.15;;;6.72;;
215;SDS011;64590;48.81286795;9.14184224;2023-01-28T02:58:09;11.63;;;6.43;;
215;SDS011;64590;48.81286795;9.14184224;2023-01-28T03:00:48;14.07;;;7.60;;
215;SDS011;64590;48.81286795;9.14184224;2023-01-28T03:03:21;12.35;;;7.05;;
215;SDS011;64590;48.81286795;9.14184224;2023-01-28T03:05:54;15.63;;;7.88;;
215;SDS011;64590;48.81286795;9.14184224;2023-01-28T03:08:32;13.85;;;7.60;;
215;SDS011;64590;48.81286795;9.14184224;2023-01-28T03:11:19;12.55;;;7.20;;
215;SDS011;64590;48.81286795;9.14184224;2023-01-28T03:14:06;13.75;;;7.45;;
215;SDS011;64590;48.81286795;9.14184224;2023-01-28T03:16:52;12.60;;;7.30;;
215;SDS011;64590;48.81286795;9.14184224;2023-01-28T03:19:39;12.55;;;7.30;;
215;SDS011;64590;48.81286795;9.14184224;2023-01-28T03:22:23;12.20;;;7.28;;
215;SDS011;64590;48.81286795;9.14184224;2023-01-28T03:25:15;12.00;;;7.28;;
215;SDS011;64590;48.81286795;9.14184224;2023-01-28T03:28:05;15.20;;;7.55;;
215;SDS011;64590;48.81286795;9.14184224;2023-01-28T03:30:56;14.57;;;7.88;;
215;SDS011;64590;48.81286795;9.14184224;2023-01-28T03:33:51;14.43;;;7.65;;
215;SDS011;64590;48.81286795;9.14184224;2023-01-28T03:36:37;14.35;;;8.30;;
215;SDS011;64590;48.81286795;9.14184224;2023-01-28T03:39:32;15.50;;;7.90;;
215;SDS011;64590;48.81286795;9.14184224;2023-01-28T03:42:00;13.60;;;7.70;;
215;SDS011;64590;48.81286795;9.14184224;2023-01-28T03:44:29;14.68;;;8.52;;
215;SDS011;64590;48.81286795;9.14184224;2023-01-28T03:47:13;14.90;;;8.82;;
215;SDS011;64590;48.81286795;9.14184224;2023-01-28T03:49:42;16.25;;;9.35;;
215;SDS011;64590;48.81286795;9.14184224;2023-01-28T03:52:10;15.88;;;8.95;;
215;SDS011;64590;48.81286795;9.14184224;2023-01-28T03:54:37;14.77;;;8.55;;
215;SDS011;64590;48.81286795;9.14184224;2023-01-28T03:57:03;18.75;;;10.10;;
215;SDS011;64590;48.81286795;9.14184224;2023-01-28T03:59:31;18.23;;;10.05;;
215;SDS011;64590;48.81286795;9.14184224;2023-01-28T04:01:58;21.20;;;11.10;;
215;SDS011;64590;48.81286795;9.14184224;2023-01-28T04:04:28;19.85;;;10.50;;
215;SDS011;64590;48.81286795;9.14184224;2023-01-28T04:06:58;20.08;;;9.65;;
215;SDS011;64590;48.81286795;9.14184224;2023-01-28T04:09:54;20.40;;;10.75;;
215;SDS011;64590;48.81286795;9.14184224;2023-01-28T04:12:41;19.58;;;10.80;;
215;SDS011;64590;48.81286795;9.14184224;2023-01-28T04:15:08;21.42;;;11.00;;
215;SDS011;64590;48.81286795;9.14184224;2023-01-28T04:17:43;17.80;;;10.40;;
215;SDS011;64590;48.81286795;9.14184224;2023-01-28T04:20:12;20.20;;;11.30;;
215;SDS011;64590;48.81286795;9.14184224;2023-01-28T04:22:41;20.05;;;10.05;;
215;SDS011;64590;48.81286795;9.14184224;2023-01-28T04:25:09;20.48;;;11.38;;
215;SDS011;64590;48.81286795;9.14184224;2023-01-28T04:27:36;20.35;;;11.20;;
215;SDS011;64590;48.81286795;9.14184224;2023-01-28T04:30:14;19.52;;;11.07;;
215;SDS011;64590;48.81286795;9.14184224;2023-01-28T04:33:02;18.60;;;10.48;;
215;SDS011;64590;48.81286795;9.14184224;2023-01-28T04:35:51;20.67;;;11.15;;
215;SDS011;64590;48.81286795;9.14184224;2023-01-28T04:38:35;20.10;;;11.70;;
215;SDS011;64590;48.81286795;9.14184224;2023-01-28T04:41:21;19.85;;;11.07;;
215;SDS011;64590;48.81286795;9.14184224;2023-01-28T04:43:47;18.45;;;10.65;;
215;SDS011;64590;48.81286795;9.14184224;2023-01-28T04:46:33;20.60;;;11.32;;
215;SDS011;64590;48.81286795;9.14184224;2023-01-28T04:49:02;19.70;;;11.10;;
215;SDS011;64590;48.81286795;9.14184224;2023-01-28T04:51:43;20.23;;;11.15;;
215;SDS011;64590;48.81286795;9.14184224;2023-01-28T04:54:29;20.10;;;11.10;;
215;SDS011;64590;48.81286795;9.14184224;2023-01-28T04:56:58;21.10;;;11.45;;
215;SDS011;64590;48.81286795;9.14184224;2023-01-28T04:59:25;20.77;;;11.15;;
215;SDS011;64590;48.81286795;9.14184224;2023-01-28T05:01:52;21.20;;;10.25;;
215;SDS011;64590;48.81286795;9.14184224;2023-01-28T05:04:20;18.23;;;10.95;;
215;SDS011;64590;48.81286795;9.14184224;2023-01-28T05:06:46;19.65;;;11.13;;
215;SDS011;64590;48.81286795;9.14184224;2023-01-28T05:09:20;20.48;;;10.95;;
215;SDS011;64590;48.81286795;9.14184224;2023-01-28T05:11:50;19.58;;;11.02;;
215;SDS011;64590;48.81286795;9.14184224;2023-01-28T05:14:17;21.92;;;11.07;;
215;SDS011;64590;48.81286795;9.14184224;2023-01-28T05:16:48;19.45;;;10.82;;
215;SDS011;64590;48.81286795;9.14184224;2023-01-28T05:19:16;19.13;;;10.82;;
215;SDS011;64590;48.81286795;9.14184224;2023-01-28T05:21:44;21.55;;;11.13;;
215;SDS011;64590;48.81286795;9.14184224;2023-01-28T05:24:20;19.42;;;10.50;;
215;SDS011;64590;48.81286795;9.14184224;2023-01-28T05:26:46;21.40;;;10.90;;
215;SDS011;64590;48.81286795;9.14184224;2023-01-28T05:29:14;20.90;;;10.98;;
215;SDS011;64590;48.81286795;9.14184224;2023-01-28T05:31:41;20.92;;;10.90;;
215;SDS011;64590;48.81286795;9.14184224;2023-01-28T05:34:08;19.65;;;10.50;;
215;SDS011;64590;48.81286795;9.14184224;2023-01-28T05:36:35;21.58;;;11.15;;
215;SDS011;64590;48.81286795;9.14184224;2023-01-28T05:39:11;19.58;;;10.10;;
215;SDS011;64590;48.81286795;9.14184224;2023-01-28T05:41:39;16.58;;;9.95;;
215;SDS011;64590;48.81286795;9.14184224;2023-01-28T05:44:06;17.88;;;10.20;;
215;SDS011;64590;48.81286795;9.14184224;2023-01-28T05:46:56;18.20;;;9.98;;
215;SDS011;64590;48.81286795;9.14184224;2023-01-28T05:49:43;17.02;;;9.80;;
215;SDS011;64590;48.81286795;9.14184224;2023-01-28T05:52:46;18.60;;;10.00;;
215;SDS011;64590;48.81286795;9.14184224;2023-01-28T05:55:21;19.63;;;10.77;;
215;SDS011;64590;48.81286795;9.14184224;2023-01-28T05:57:48;17.67;;;10.27;;
215;SDS011;64590;48.81286795;9.14184224;2023-01-28T06:00:17;18.67;;;10.38;;
215;SDS011;64590;48.81286795;9.14184224;2023-01-28T06:02:45;18.55;;;10.70;;
215;SDS011;64590;48.81286795;9.14184224;2023-01-28T06:05:14;19.17;;;10.82;;
215;SDS011;64590;48.81286795;9.14184224;2023-01-28T06:07:43;18.13;;;9.95;;
215;SDS011;64590;48.81286795;9.14184224;2023-01-28T06:10:10;18.55;;;10.30;;
215;SDS011;64590;48.81286795;9.14184224;2023-01-28T06:12:37;19.58;;;10.55;;
215;SDS011;64590;48.81286795;9.14184224;2023-01-28T06:15:32;17.40;;;9.95;;
215;SDS011;64590;48.81286795;9.14184224;2023-01-28T06:18:13;17.88;;;9.82;;
215;SDS011;64590;48.81286795;9.14184224;2023-01-28T06:20:40;20.25;;;10.48;;
215;SDS011;64590;48.81286795;9.14184224;2023-01-28T06:23:07;20.13;;;10.00;;
215;SDS011;64590;48.81286795;9.14184224;2023-01-28T06:25:33;17.92;;;9.93;;
215;SDS011;64590;48.81286795;9.14184224;2023-01-28T06:28:04;17.42;;;9.73;;
215;SDS011;64590;48.81286795;9.14184224;2023-01-28T06:30:31;19.20;;;10.27;;
215;SDS011;64590;48.81286795;9.14184224;2023-01-28T06:32:58;20.25;;;10.27;;
215;SDS011;64590;48.81286795;9.14184224;2023-01-28T06:35:25;18.33;;;10.05;;
215;SDS011;64590;48.81286795;9.14184224;2023-01-28T06:37:52;18.90;;;10.73;;
215;SDS011;64590;48.81286795;9.14184224;2023-01-28T06:40:19;18.13;;;10.35;;
215;SDS011;64590;48.81286795;9.14184224;2023-01-28T06:42:47;17.58;;;10.23;;
215;SDS011;64590;48.81286795;9.14184224;2023-01-28T06:45:14;20.40;;;11.27;;
215;SDS011;64590;48.81286795;9.14184224;2023-01-28T06:47:40;19.23;;;11.07;;
215;SDS011;64590;48.81286795;9.14184224;2023-01-28T06:50:07;19.15;;;10.75;;
215;SDS011;64590;48.81286795;9.14184224;2023-01-28T06:52:36;18.73;;;10.35;;
215;SDS011;64590;48.81286795;9.14184224;2023-01-28T06:55:03;21.60;;;10.75;;
215;SDS011;64590;48.81286795;9.14184224;2023-01-28T06:57:30;19.35;;;10.60;;
215;SDS011;64590;48.81286795;9.14184224;2023-01-28T06:59:57;18.48;;;10.00;;
215;SDS011;64590;48.81286795;9.14184224;2023-01-28T07:02:23;19.70;;;10.73;;
215;SDS011;64590;48.81286795;9.14184224;2023-01-28T07:04:50;19.83;;;11.35;;
215;SDS011;64590;48.81286795;9.14184224;2023-01-28T07:07:16;21.60;;;11.50;;
215;SDS011;64590;48.81286795;9.14184224;2023-01-28T07:09:44;19.80;;;11.80;;
215;SDS011;64590;48.81286795;9.14184224;2023-01-28T07:12:11;21.60;;;12.02;;
215;SDS011;64590;48.81286795;9.14184224;2023-01-28T07:14:37;22.13;;;11.90;;
215;SDS011;64590;48.81286795;9.14184224;2023-01-28T07:17:04;20.58;;;11.30;;
215;SDS011;64590;48.81286795;9.14184224;2023-01-28T07:19:30;21.50;;;11.88;;
215;SDS011;64590;48.81286795;9.14184224;2023-01-28T07:21:57;21.23;;;12.00;;
215;SDS011;64590;48.81286795;9.14184224;2023-01-28T07:24:25;22.15;;;11.85;;
215;SDS011;64590;48.81286795;9.14184224;2023-01-28T07:26:52;21.38;;;12.13;;
215;SDS011;64590;48.81286795;9.14184224;2023-01-28T07:29:19;22.95;;;12.20;;
215;SDS011;64590;48.81286795;9.14184224;2023-01-28T07:31:46;24.05;;;12.35;;
215;SDS011;64590;48.81286795;9.14184224;2023-01-28T07:34:12;23.35;;;12.25;;
215;SDS011;64590;48.81286795;9.14184224;2023-01-28T07:36:39;22.20;;;11.63;;
215;SDS011;64590;48.81286795;9.14184224;2023-01-28T07:39:05;23.92;;;12.15;;
215;SDS011;64590;48.81286795;9.14184224;2023-01-28T07:41:32;22.13;;;12.18;;
215;SDS011;64590;48.81286795;9.14184224;2023-01-28T07:44:05;22.55;;;12.02;;
215;SDS011;64590;48.81286795;9.14184224;2023-01-28T07:46:32;22.45;;;12.23;;
215;SDS011;64590;48.81286795;9.14184224;2023-01-28T07:48:59;23.08;;;12.32;;
215;SDS011;64590;48.81286795;9.14184224;2023-01-28T07:51:25;20.52;;;11.88;;
215;SDS011;64590;48.81286795;9.14184224;2023-01-28T07:53:52;25.08;;;12.27;;
215;SDS011;64590;48.81286795;9.14184224;2023-01-28T07:56:18;22.48;;;12.23;;
215;SDS011;64590;48.81286795;9.14184224;2023-01-28T07:58:48;22.95;;;12.63;;
215;SDS011;64590;48.81286795;9.14184224;2023-01-28T08:01:16;31.30;;;16.58;;
215;SDS011;64590;48.81286795;9.14184224;2023-01-28T08:03:43;24.27;;;12.77;;
215;SDS011;64590;48.81286795;9.14184224;2023-01-28T08:06:10;22.83;;;12.60;;
215;SDS011;64590;48.81286795;9.14184224;2023-01-28T08:08:36;21.73;;;11.57;;
215;SDS011;64590;48.81286795;9.14184224;2023-01-28T08:11:05;21.15;;;11.90;;
215;SDS011;64590;48.81286795;9.14184224;2023-01-28T08:13:33;21.70;;;11.98;;
215;SDS011;64590;48.81286795;9.14184224;2023-01-28T08:15:59;23.55;;;12.80;;
215;SDS011;64590;48.81286795;9.14184224;2023-01-28T08:18:28;25.33;;;11.50;;
215;SDS011;64590;48.81286795;9.14184224;2023-01-28T08:20:54;25.35;;;12.68;;
215;SDS011;64590;48.81286795;9.14184224;2023-01-28T08:23:21;24.23;;;12.77;;
215;SDS011;64590;48.81286795;9.14184224;2023-01-28T08:25:51;23.17;;;12.52;;
215;SDS011;64590;48.81286795;9.14184224;2023-01-28T08:28:18;24.73;;;13.43;;
215;SDS011;64590;48.81286795;9.14184224;2023-01-28T08:30:45;23.52;;;12.77;;
215;SDS011;64590;48.81286795;9.14184224;2023-01-28T08:33:13;32.63;;;15.73;;
215;SDS011;64590;48.81286795;9.14184224;2023-01-28T08:35:42;23.98;;;13.25;;
215;SDS011;64590;48.81286795;9.14184224;2023-01-28T08:38:10;22.92;;;12.65;;
215;SDS011;64590;48.81286795;9.14184224;2023-01-28T08:40:39;22.98;;;12.55;;
215;SDS011;64590;48.81286795;9.14184224;2023-01-28T08:43:06;22.85;;;12.40;;
215;SDS011;64590;48.81286795;9.14184224;2023-01-28T08:45:32;23.02;;;12.95;;
215;SDS011;64590;48.81286795;9.14184224;2023-01-28T08:47:59;24.77;;;13.07;;
215;SDS011;64590;48.81286795;9.14184224;2023-01-28T08:50:28;23.90;;;12.98;;
215;SDS011;64590;48.81286795;9.14184224;2023-01-28T08:52:58;24.52;;;13.55;;
215;SDS011;64590;48.81286795;9.14184224;2023-01-28T08:55:26;22.90;;;13.05;;
215;SDS011;64590;48.81286795;9.14184224;2023-01-28T08:57:54;26.80;;;13.63;;
215;SDS011;64590;48.81286795;9.14184224;2023-01-28T09:00:21;24.52;;;13.50;;
215;SDS011;64590;48.81286795;9.14184224;2023-01-28T09:02:49;26.05;;;13.75;;
215;SDS011;64590;48.81286795;9.14184224;2023-01-28T09:05:16;24.17;;;13.25;;
215;SDS011;64590;48.81286795;9.14184224;2023-01-28T09:07:43;38.75;;;18.33;;
215;SDS011;64590;48.81286795;9.14184224;2023-01-28T09:10:11;28.55;;;15.50;;
215;SDS011;64590;48.81286795;9.14184224;2023-01-28T09:12:38;28.45;;;14.50;;
215;SDS011;64590;48.81286795;9.14184224;2023-01-28T09:15:05;25.23;;;14.02;;
215;SDS011;64590;48.81286795;9.14184224;2023-01-28T09:17:33;28.83;;;15.13;;
215;SDS011;64590;48.81286795;9.14184224;2023-01-28T09:19:59;28.23;;;14.82;;
215;SDS011;64590;48.81286795;9.14184224;2023-01-28T09:22:26;29.23;;;14.93;;
215;SDS011;64590;48.81286795;9.14184224;2023-01-28T09:24:53;27.33;;;15.32;;
215;SDS011;64590;48.81286795;9.14184224;2023-01-28T09:27:20;28.17;;;15.38;;
215;SDS011;64590;48.81286795;9.14184224;2023-01-28T09:29:47;27.73;;;14.70;;
215;SDS011;64590;48.81286795;9.14184224;2023-01-28T09:32:14;27.50;;;14.32;;
215;SDS011;64590;48.81286795;9.14184224;2023-01-28T09:34:40;29.02;;;14.52;;
215;SDS011;64590;48.81286795;9.14184224;2023-01-28T09:37:08;26.63;;;14.68;;
215;SDS011;64590;48.81286795;9.14184224;2023-01-28T09:39:35;28.55;;;14.98;;
215;SDS011;64590;48.81286795;9.14184224;2023-01-28T09:42:06;27.02;;;13.57;;
215;SDS011;64590;48.81286795;9.14184224;2023-01-28T09:45:05;26.83;;;14.02;;
215;SDS011;64590;48.81286795;9.14184224;2023-01-28T09:47:40;26.58;;;14.73;;
215;SDS011;64590;48.81286795;9.14184224;2023-01-28T09:50:11;28.23;;;14.75;;
215;SDS011;64590;48.81286795;9.14184224;2023-01-28T09:52:41;29.05;;;13.98;;
215;SDS011;64590;48.81286795;9.14184224;2023-01-28T09:55:12;27.63;;;14.75;;
215;SDS011;64590;48.81286795;9.14184224;2023-01-28T09:57:46;28.10;;;14.05;;
215;SDS011;64590;48.81286795;9.14184224;2023-01-28T10:00:17;25.60;;;13.70;;
215;SDS011;64590;48.81286795;9.14184224;2023-01-28T10:02:53;27.08;;;14.23;;
215;SDS011;64590;48.81286795;9.14184224;2023-01-28T10:05:31;31.45;;;15.07;;
215;SDS011;64590;48.81286795;9.14184224;2023-01-28T10:08:10;28.00;;;14.48;;
215;SDS011;64590;48.81286795;9.14184224;2023-01-28T10:10:47;29.25;;;14.70;;
215;SDS011;64590;48.81286795;9.14184224;2023-01-28T10:13:21;26.10;;;13.88;;
215;SDS011;64590;48.81286795;9.14184224;2023-01-28T10:15:56;26.88;;;14.52;;
215;SDS011;64590;48.81286795;9.14184224;2023-01-28T10:18:32;28.63;;;14.65;;
215;SDS011;64590;48.81286795;9.14184224;2023-01-28T10:21:05;29.58;;;15.25;;
215;SDS011;64590;48.81286795;9.14184224;2023-01-28T10:23:39;28.73;;;15.32;;
215;SDS011;64590;48.81286795;9.14184224;2023-01-28T10:26:14;28.17;;;15.05;;
215;SDS011;64590;48.81286795;9.14184224;2023-01-28T10:28:49;30.75;;;15.10;;
215;SDS011;64590;48.81286795;9.14184224;2023-01-28T10:31:21;27.63;;;14.23;;
215;SDS011;64590;48.81286795;9.14184224;2023-01-28T10:33:48;28.30;;;14.73;;
215;SDS011;64590;48.81286795;9.14184224;2023-01-28T10:36:14;31.30;;;15.45;;
215;SDS011;64590;48.81286795;9.14184224;2023-01-28T10:38:42;28.98;;;15.52;;
215;SDS011;64590;48.81286795;9.14184224;2023-01-28T10:41:09;29.70;;;15.88;;
215;SDS011;64590;48.81286795;9.14184224;2023-01-28T10:43:38;32.08;;;16.13;;
215;SDS011;64590;48.81286795;9.14184224;2023-01-28T10:46:10;30.08;;;15.30;;
215;SDS011;64590;48.81286795;9.14184224;2023-01-28T10:48:41;27.35;;;14.05;;
215;SDS011;64590;48.81286795;9.14184224;2023-01-28T10:51:10;28.30;;;14.63;;
215;SDS011;64590;48.81286795;9.14184224;2023-01-28T10:53:37;29.88;;;15.57;;
215;SDS011;64590;48.81286795;9.14184224;2023-01-28T10:56:06;27.83;;;15.02;;
215;SDS011;64590;48.81286795;9.14184224;2023-01-28T10:58:35;26.42;;;14.68;;
215;SDS011;64590;48.81286795;9.14184224;2023-01-28T11:01:13;30.95;;;14.98;;
215;SDS011;64590;48.81286795;9.14184224;2023-01-28T11:03:40;27.83;;;15.02;;
215;SDS011;64590;48.81286795;9.14184224;2023-01-28T11:06:22;34.05;;;15.45;;
215;SDS011;64590;48.81286795;9.14184224;2023-01-28T11:08:50;28.65;;;14.75;;
215;SDS011;64590;48.81286795;9.14184224;2023-01-28T11:11:21;29.98;;;15.05;;
215;SDS011;64590;48.81286795;9.14184224;2023-01-28T11:13:50;30.25;;;15.50;;
215;SDS011;64590;48.81286795;9.14184224;2023-01-28T11:16:21;30.65;;;15.50;;
215;SDS011;64590;48.81286795;9.14184224;2023-01-28T11:18:49;28.17;;;14.65;;
215;SDS011;64590;48.81286795;9.14184224;2023-01-28T11:21:19;29.55;;;15.15;;
215;SDS011;64590;48.81286795;9.14184224;2023-01-28T11:23:48;28.67;;;14.70;;
215;SDS011;64590;48.81286795;9.14184224;2023-01-28T11:26:18;29.48;;;14.30;;
215;SDS011;64590;48.81286795;9.14184224;2023-01-28T11:28:47;36.25;;;15.93;;
215;SDS011;64590;48.81286795;9.14184224;2023-01-28T11:31:16;32.05;;;15.75;;
215;SDS011;64590;48.81286795;9.14184224;2023-01-28T11:33:47;29.33;;;15.52;;
215;SDS011;64590;48.81286795;9.14184224;2023-01-28T11:36:16;31.55;;;15.68;;
215;SDS011;64590;48.81286795;9.14184224;2023-01-28T11:38:49;28.77;;;14.65;;
215;SDS011;64590;48.81286795;9.14184224;2023-01-28T11:41:18;30.85;;;16.17;;
215;SDS011;64590;48.81286795;9.14184224;2023-01-28T11:43:51;29.63;;;15.10;;
215;SDS011;64590;48.81286795;9.14184224;2023-01-28T11:49:18;28.48;;;14.15;;
215;SDS011;64590;48.81286795;9.14184224;2023-01-28T11:51:54;28.13;;;15.13;;
215;SDS011;64590;48.81286795;9.14184224;2023-01-28T11:54:30;27.30;;;14.38;;
215;SDS011;64590;48.81286795;9.14184224;2023-01-28T11:57:13;33.50;;;15.40;;
215;SDS011;64590;48.81286795;9.14184224;2023-01-28T11:59:56;32.00;;;14.85;;
215;SDS011;64590;48.81286795;9.14184224;2023-01-28T12:02:50;29.73;;;14.95;;
215;SDS011;64590;48.81286795;9.14184224;2023-01-28T12:05:32;31.73;;;15.05;;
215;SDS011;64590;48.81286795;9.14184224;2023-01-28T12:08:11;32.53;;;15.32;;
215;SDS011;64590;48.81286795;9.14184224;2023-01-28T12:10:48;28.23;;;15.48;;
215;SDS011;64590;48.81286795;9.14184224;2023-01-28T12:13:27;35.70;;;16.23;;
215;SDS011;64590;48.81286795;9.14184224;2023-01-28T12:16:11;29.58;;;15.10;;
215;SDS011;64590;48.81286795;9.14184224;2023-01-28T12:18:51;30.05;;;15.10;;
215;SDS011;64590;48.81286795;9.14184224;2023-01-28T12:21:32;33.15;;;15.85;;
215;SDS011;64590;48.81286795;9.14184224;2023-01-28T12:24:14;32.90;;;15.18;;
215;SDS011;64590;48.81286795;9.14184224;2023-01-28T12:26:54;31.35;;;16.13;;
215;SDS011;64590;48.81286795;9.14184224;2023-01-28T12:29:29;32.17;;;15.77;;
215;SDS011;64590;48.81286795;9.14184224;2023-01-28T12:32:08;27.65;;;14.32;;
215;SDS011;64590;48.81286795;9.14184224;2023-01-28T12:35:05;28.48;;;14.23;;
215;SDS011;64590;48.81286795;9.14184224;2023-01-28T12:37:50;28.45;;;13.57;;
215;SDS011;64590;48.81286795;9.14184224;2023-01-28T12:40:32;27.23;;;13.65;;
215;SDS011;64590;48.81286795;9.14184224;2023-01-28T12:43:22;25.50;;;12.80;;
215;SDS011;64590;48.81286795;9.14184224;2023-01-28T12:46:09;29.02;;;13.70;;
215;SDS011;64590;48.81286795;9.14184224;2023-01-28T12:48:43;25.52;;;13.02;;
215;SDS011;64590;48.81286795;9.14184224;2023-01-28T12:51:13;29.48;;;14.25;;
215;SDS011;64590;48.81286795;9.14184224;2023-01-28T12:53:45;29.98;;;13.98;;
215;SDS011;64590;48.81286795;9.14184224;2023-01-28T12:56:16;28.30;;;13.48;;
215;SDS011;64590;48.81286795;9.14184224;2023-01-28T12:58:46;30.40;;;14.15;;
215;SDS011;64590;48.81286795;9.14184224;2023-01-28T13:01:20;28.80;;;13.15;;
215;SDS011;64590;48.81286795;9.14184224;2023-01-28T13:03:54;26.90;;;13.52;;
215;SDS011;64590;48.81286795;9.14184224;2023-01-28T13:06:26;30.83;;;13.70;;
215;SDS011;64590;48.81286795;9.14184224;2023-01-28T13:08:59;24.10;;;13.10;;
215;SDS011;64590;48.81286795;9.14184224;2023-01-28T13:11:30;25.65;;;13.25;;
215;SDS011;64590;48.81286795;9.14184224;2023-01-28T13:14:00;25.98;;;13.43;;
215;SDS011;64590;48.81286795;9.14184224;2023-01-28T13:16:28;24.70;;;12.68;;
215;SDS011;64590;48.81286795;9.14184224;2023-01-28T13:19:03;21.52;;;11.90;;
215;SDS011;64590;48.81286795;9.14184224;2023-01-28T13:21:32;23.70;;;12.50;;